Time;durP1;ratioP1;P1;durP2;ratioP2;P2;SDS_P1;SDS_P2;PMS_P1;PMS_P2;Temp;Humidity;BMP_temperature;BMP_pressure;BME280_temperature;BME280_humidity;BME280_pressure;Samples;Min_cycle;Max_cycle;Signal;HPM_P1;HPM_P2
2023/03/08 00:01:23;;;;;;;30.80;20.90;;;;;;;-0.32;100.00;98448.95;107610;1267;22537;-67
2023/03/08 00:03:53;;;;;;;30.90;21.00;;;;;;;-0.31;100.00;98443.14;107707;1275;23153;-66
2023/03/08 00:06:21;;;;;;;30.10;19.60;;;;;;;-0.23;100.00;98436.36;110442;1273;23285;-68
2023/03/08 00:08:57;;;;;;;28.60;19.30;;;;;;;-0.11;100.00;98428.45;110461;1275;22623;-68
2023/03/08 00:11:28;;;;;;;27.90;18.20;;;;;;;-0.03;100.00;98432.45;110438;1275;22940;-68
2023/03/08 00:13:56;;;;;;;27.40;19.10;;;;;;;0.01;100.00;98430.80;110435;1275;22913;-68
2023/03/08 00:16:25;;;;;;;30.30;19.00;;;;;;;0.07;100.00;98428.52;110411;1275;22401;-68
2023/03/08 00:18:53;;;;;;;29.10;18.40;;;;;;;0.19;100.00;98427.06;110446;1275;22307;-68
2023/03/08 00:21:21;;;;;;;26.30;18.20;;;;;;;0.31;100.00;98423.77;110415;1267;22410;-68
2023/03/08 00:23:53;;;;;;;27.40;18.00;;;;;;;0.40;100.00;98425.55;110404;1275;23095;-69
2023/03/08 00:26:21;;;;;;;28.20;17.60;;;;;;;0.44;100.00;98418.68;110456;1275;22223;-68
2023/03/08 00:28:51;;;;;;;26.90;17.60;;;;;;;0.47;100.00;98418.61;110383;1273;23207;-68
2023/03/08 00:31:20;;;;;;;24.70;17.30;;;;;;;0.57;100.00;98417.35;110423;1275;22226;-68
2023/03/08 00:33:53;;;;;;;26.50;17.30;;;;;;;0.65;100.00;98408.72;110421;1275;22290;-68
2023/03/08 00:36:24;;;;;;;24.30;16.40;;;;;;;0.72;100.00;98407.10;110415;1267;22254;-68
2023/03/08 00:38:53;;;;;;;24.30;17.20;;;;;;;0.74;100.00;98411.31;110425;1275;22248;-68
2023/03/08 00:41:21;;;;;;;22.90;16.80;;;;;;;0.73;100.00;98408.23;110443;1275;22219;-68
2023/03/08 00:43:50;;;;;;;26.30;18.30;;;;;;;0.78;100.00;98408.17;110405;1272;22684;-68
2023/03/08 00:46:18;;;;;;;25.70;17.60;;;;;;;0.85;100.00;98403.56;110343;1275;22286;-68
2023/03/08 00:48:48;;;;;;;22.00;15.60;;;;;;;0.89;100.00;98402.79;110425;1275;22273;-68
2023/03/08 00:51:17;;;;;;;23.40;17.50;;;;;;;0.88;100.00;98399.65;110091;1275;22685;-67
2023/03/08 00:53:47;;;;;;;25.90;17.40;;;;;;;0.87;100.00;98391.11;107547;1272;22552;-67
2023/03/08 00:56:15;;;;;;;24.50;16.10;;;;;;;0.91;100.00;98389.59;107640;1275;22557;-67
2023/03/08 00:58:43;;;;;;;26.70;17.30;;;;;;;0.96;100.00;98380.34;107470;1273;23488;-67
2023/03/08 01:01:16;;;;;;;24.90;16.60;;;;;;;1.00;100.00;98372.89;107699;1274;24288;-68
2023/03/08 01:03:47;;;;;;;25.40;16.80;;;;;;;1.01;100.00;98377.31;110434;1275;22934;-69
2023/03/08 01:06:16;;;;;;;23.50;16.20;;;;;;;1.03;100.00;98372.05;110450;1275;22898;-68
2023/03/08 01:08:45;;;;;;;22.00;15.70;;;;;;;1.14;100.00;98372.27;110451;1275;23145;-68
2023/03/08 01:11:22;;;;;;;25.10;16.00;;;;;;;1.25;100.00;98374.02;110416;1275;22492;-68
2023/03/08 01:13:50;;;;;;;24.50;14.80;;;;;;;1.33;100.00;98364.20;110433;1272;22249;-68
2023/03/08 01:16:21;;;;;;;24.80;16.10;;;;;;;1.34;100.00;98367.77;110431;1273;22374;-68
2023/03/08 01:18:51;;;;;;;24.30;15.80;;;;;;;1.36;100.00;98371.54;110428;1275;22426;-68
2023/03/08 01:21:20;;;;;;;23.90;16.40;;;;;;;1.44;100.00;98373.06;110322;1275;22227;-68
2023/03/08 01:23:48;;;;;;;25.30;16.00;;;;;;;1.54;100.00;98375.94;110441;1275;22286;-68
2023/03/08 01:26:19;;;;;;;24.30;15.90;;;;;;;1.60;100.00;98376.39;110398;1267;22486;-67
2023/03/08 01:28:47;;;;;;;26.10;16.50;;;;;;;1.59;100.00;98369.09;110417;1269;22236;-68
2023/03/08 01:31:20;;;;;;;24.70;17.50;;;;;;;1.59;100.00;98367.80;110450;1269;22875;-68
2023/03/08 01:33:50;;;;;;;22.60;15.30;;;;;;;1.67;100.00;98363.88;110424;1267;22944;-68
2023/03/08 01:36:20;;;;;;;21.60;15.60;;;;;;;1.74;100.00;98362.90;110333;1275;22440;-68
2023/03/08 01:38:50;;;;;;;22.00;15.40;;;;;;;1.76;100.00;98364.07;110438;1275;23107;-68
2023/03/08 01:41:24;;;;;;;24.40;15.50;;;;;;;1.74;100.00;98357.70;110269;1275;22099;-68
2023/03/08 01:43:52;;;;;;;24.70;16.80;;;;;;;1.72;100.00;98353.66;110384;1275;22535;-68
2023/03/08 01:46:26;;;;;;;25.00;16.00;;;;;;;1.78;100.00;98357.59;110456;1275;22407;-68
2023/03/08 01:49:17;;;;;;;23.20;15.90;;;;;;;1.84;100.00;98359.23;110365;1270;22266;-68
2023/03/08 01:51:50;;;;;;;26.50;16.40;;;;;;;1.83;100.00;98354.07;110267;1275;23086;-70
2023/03/08 01:54:28;;;;;;;25.60;16.90;;;;;;;1.80;100.00;98354.73;110357;1270;22334;-68
2023/03/08 01:57:10;;;;;;;26.20;16.60;;;;;;;1.83;100.00;98355.89;110291;1275;22444;-68
2023/03/08 01:59:38;;;;;;;23.90;15.60;;;;;;;1.88;100.00;98351.07;110226;1275;22400;-68
2023/03/08 02:02:06;;;;;;;24.60;16.60;;;;;;;1.91;100.00;98345.86;110277;1275;23227;-68
2023/03/08 02:04:35;;;;;;;24.50;17.30;;;;;;;1.90;100.00;98342.72;110388;1275;22689;-68
2023/03/08 02:07:05;;;;;;;26.60;17.70;;;;;;;1.86;100.00;98341.17;110282;1275;22430;-68
2023/03/08 02:09:33;;;;;;;25.00;16.30;;;;;;;1.86;100.00;98339.83;110395;1275;22680;-69
2023/03/08 02:12:03;;;;;;;28.90;17.90;;;;;;;1.91;100.00;98345.05;110320;1275;22461;-68
2023/03/08 02:14:34;;;;;;;25.60;16.50;;;;;;;1.93;100.00;98340.94;110333;1275;22801;-68
2023/03/08 02:17:03;;;;;;;26.60;18.00;;;;;;;1.89;100.00;98341.52;110319;1275;22226;-68
2023/03/08 02:20:05;;;;;;;28.10;17.40;;;;;;;1.84;100.00;98332.23;109455;1267;25360;-68
2023/03/08 02:22:38;;;;;;;27.10;17.60;;;;;;;1.88;100.00;98332.66;107704;1274;25488;-68
2023/03/08 02:25:13;;;;;;;27.20;17.60;;;;;;;1.88;100.00;98330.58;107737;1275;23284;-68
2023/03/08 02:27:41;;;;;;;26.40;18.10;;;;;;;1.86;100.00;98330.44;107758;1275;25344;-68
2023/03/08 02:30:11;;;;;;;24.50;16.80;;;;;;;1.82;100.00;98323.52;107744;1274;23412;-68
2023/03/08 02:32:42;;;;;;;27.60;17.60;;;;;;;1.78;100.00;98321.91;107574;1269;25459;-67
2023/03/08 02:35:11;;;;;;;25.30;17.20;;;;;;;1.80;100.00;98329.02;107438;1275;25196;-68
2023/03/08 02:37:40;;;;;;;25.50;17.90;;;;;;;1.84;100.00;98335.25;107510;1275;22759;-68
2023/03/08 02:40:10;;;;;;;26.00;17.10;;;;;;;1.84;100.00;98329.13;107358;1275;22560;-68
2023/03/08 02:42:38;;;;;;;26.90;18.30;;;;;;;1.80;100.00;98327.52;108220;1251;24235;-67
2023/03/08 02:45:08;;;;;;;25.70;17.40;;;;;;;1.74;100.00;98333.52;107624;1275;22550;-68
2023/03/08 02:47:36;;;;;;;27.00;17.70;;;;;;;1.78;100.00;98337.10;107531;1273;25353;-67
2023/03/08 02:50:05;;;;;;;24.80;16.90;;;;;;;1.82;100.00;98334.30;107587;1275;22614;-68
2023/03/08 02:52:35;;;;;;;24.00;16.90;;;;;;;1.83;100.00;98329.48;107584;1271;25400;-68
2023/03/08 02:55:04;;;;;;;25.90;18.10;;;;;;;1.78;100.00;98322.29;108111;1270;23858;-68
2023/03/08 02:57:32;;;;;;;27.50;17.90;;;;;;;1.74;100.00;98322.71;107557;1275;25485;-68
2023/03/08 03:00:01;;;;;;;26.60;17.90;;;;;;;1.72;100.00;98315.66;107664;1275;24483;-67
2023/03/08 03:02:31;;;;;;;28.40;18.40;;;;;;;1.76;100.00;98316.45;110432;1275;23096;-67
2023/03/08 03:05:03;;;;;;;24.60;16.60;;;;;;;1.82;100.00;98311.55;110458;1275;22973;-67
2023/03/08 03:07:34;;;;;;;26.50;17.90;;;;;;;1.84;100.00;98313.61;110332;1270;23078;-68
2023/03/08 03:10:04;;;;;;;27.40;17.70;;;;;;;1.82;100.00;98310.74;110419;1268;22193;-68
2023/03/08 03:12:32;;;;;;;24.90;17.30;;;;;;;1.80;100.00;98309.34;110338;1275;22487;-68
2023/03/08 03:15:02;;;;;;;24.60;17.10;;;;;;;1.84;100.00;98308.30;110431;1275;22917;-68
2023/03/08 03:17:31;;;;;;;26.50;17.30;;;;;;;1.89;100.00;98305.58;110452;1275;22405;-68
2023/03/08 03:19:59;;;;;;;25.00;17.40;;;;;;;1.91;100.00;98303.92;110451;1269;22289;-68
2023/03/08 03:22:29;;;;;;;27.30;18.30;;;;;;;1.90;100.00;98309.02;109958;1275;23232;-68
2023/03/08 03:24:57;;;;;;;25.90;17.30;;;;;;;1.88;100.00;98306.85;107733;1274;23374;-68
2023/03/08 03:27:25;;;;;;;24.50;16.80;;;;;;;1.91;100.00;98298.19;107599;1267;24506;-68
2023/03/08 03:29:55;;;;;;;25.80;17.10;;;;;;;1.93;100.00;98292.79;107390;1273;25350;-67
2023/03/08 03:32:23;;;;;;;27.50;17.50;;;;;;;1.89;100.00;98287.75;107588;1275;24031;-68
2023/03/08 03:34:53;;;;;;;26.40;17.50;;;;;;;1.84;100.00;98295.20;107737;1275;23234;-67
2023/03/08 03:37:21;;;;;;;24.70;16.80;;;;;;;1.82;100.00;98290.89;107425;1274;22520;-68
2023/03/08 03:39:49;;;;;;;24.50;16.50;;;;;;;1.84;100.00;98288.40;107684;1275;24184;-67
2023/03/08 03:42:18;;;;;;;25.30;17.30;;;;;;;1.86;100.00;98284.13;107683;1275;25359;-68
2023/03/08 03:44:52;;;;;;;24.20;16.60;;;;;;;1.82;100.00;98286.48;110444;1273;22365;-68
2023/03/08 03:47:21;;;;;;;25.60;17.10;;;;;;;1.78;100.00;98276.06;110487;1275;22537;-68
2023/03/08 03:49:52;;;;;;;25.70;17.30;;;;;;;1.81;100.00;98277.57;110325;1275;22862;-68
2023/03/08 03:52:22;;;;;;;26.50;16.30;;;;;;;1.87;100.00;98275.10;110305;1275;22384;-68
2023/03/08 03:54:56;;;;;;;23.60;16.90;;;;;;;1.90;100.00;98264.91;110256;1271;22262;-68
2023/03/08 03:57:25;;;;;;;23.30;17.20;;;;;;;1.87;100.00;98258.21;110317;1270;22273;-68
2023/03/08 04:00:14;;;;;;;26.50;17.50;;;;;;;1.81;100.00;98248.96;110330;1275;22279;-69
2023/03/08 04:02:47;;;;;;;26.80;18.10;;;;;;;1.81;100.00;98247.99;110214;1267;22746;-69
2023/03/08 04:05:17;;;;;;;25.30;16.40;;;;;;;1.86;100.00;98249.23;110312;1274;22402;-68
2023/03/08 04:07:47;;;;;;;24.90;16.70;;;;;;;1.90;100.00;98250.15;110353;1275;22198;-68
2023/03/08 04:10:16;;;;;;;24.20;17.20;;;;;;;1.88;100.00;98249.80;110346;1275;22474;-68
2023/03/08 04:12:48;;;;;;;27.70;17.50;;;;;;;1.85;100.00;98250.55;110316;1275;22931;-69
2023/03/08 04:15:19;;;;;;;26.20;18.20;;;;;;;1.83;100.00;98249.58;110243;1275;22212;-67
2023/03/08 04:17:50;;;;;;;24.90;16.50;;;;;;;1.86;100.00;98241.72;110366;1275;22357;-68
2023/03/08 04:20:20;;;;;;;24.40;16.90;;;;;;;1.91;100.00;98241.83;110414;1275;22264;-68
2023/03/08 04:22:55;;;;;;;26.50;18.00;;;;;;;1.88;100.00;98244.75;110311;1275;22284;-68
2023/03/08 04:25:28;;;;;;;24.90;16.70;;;;;;;1.85;100.00;98254.48;110331;1275;22390;-68
2023/03/08 04:30:24;;;;;;;23.10;16.50;;;;;;;1.89;100.00;98250.40;104280;1313;545269;-68
2023/03/08 04:32:54;;;;;;;25.50;17.30;;;;;;;1.90;100.00;98247.02;106808;1288;25351;-68
2023/03/08 04:35:28;;;;;;;22.70;15.60;;;;;;;1.95;100.00;98249.92;106864;1288;25338;-68
2023/03/08 04:37:57;;;;;;;23.80;16.10;;;;;;;1.92;100.00;98245.13;106839;1287;24382;-68
2023/03/08 04:40:26;;;;;;;25.80;17.50;;;;;;;1.89;100.00;98237.52;106669;1287;25352;-68
2023/03/08 04:43:00;;;;;;;23.70;16.90;;;;;;;1.89;100.00;98243.48;106628;1285;184309;-68
2023/03/08 04:45:36;;;;;;;23.10;16.10;;;;;;;1.94;100.00;98237.90;106731;1285;26202;-67
2023/03/08 04:48:08;;;;;;;24.10;17.20;;;;;;;1.99;100.00;98240.95;106977;1285;23362;-67
2023/03/08 04:50:39;;;;;;;25.00;17.10;;;;;;;1.97;100.00;98232.66;107543;1285;23039;-68
2023/03/08 04:53:11;;;;;;;25.10;17.80;;;;;;;1.93;100.00;98225.10;109733;1285;22459;-69
2023/03/08 04:55:41;;;;;;;23.50;16.90;;;;;;;1.95;100.00;98228.03;109707;1285;22286;-68
2023/03/08 04:58:10;;;;;;;23.90;16.60;;;;;;;2.00;100.00;98227.16;108171;1285;24338;-68
2023/03/08 05:00:39;;;;;;;26.70;18.00;;;;;;;2.03;100.00;98231.05;106683;1285;22642;-68
2023/03/08 05:03:09;;;;;;;24.00;16.90;;;;;;;2.01;100.00;98226.16;106668;1282;22625;-68
2023/03/08 05:05:37;;;;;;;25.50;17.00;;;;;;;2.00;100.00;98230.48;106956;1283;22527;-68
2023/03/08 05:08:06;;;;;;;25.10;16.80;;;;;;;2.05;100.00;98232.52;106891;1285;24395;-68
2023/03/08 05:10:34;;;;;;;24.80;16.00;;;;;;;2.10;100.00;98234.94;106921;1279;22522;-68
2023/03/08 05:13:08;;;;;;;23.20;15.80;;;;;;;2.09;100.00;98238.10;106857;1283;24393;-67
2023/03/08 05:15:36;;;;;;;24.30;16.60;;;;;;;2.06;100.00;98233.92;106874;1285;23238;-67
2023/03/08 05:18:07;;;;;;;25.20;17.40;;;;;;;2.02;100.00;98229.80;106797;1284;22554;-67
2023/03/08 05:20:37;;;;;;;23.20;16.60;;;;;;;2.07;100.00;98230.79;106759;1285;22584;-68
2023/03/08 05:23:06;;;;;;;25.60;17.00;;;;;;;2.12;100.00;98228.42;106761;1282;22642;-67
2023/03/08 05:25:44;;;;;;;24.70;17.10;;;;;;;2.13;100.00;98228.52;106827;1285;25335;-67
2023/03/08 05:28:14;;;;;;;24.40;16.70;;;;;;;2.11;100.00;98228.84;106724;1285;23804;-67
2023/03/08 05:30:44;;;;;;;26.20;18.00;;;;;;;2.10;100.00;98224.73;106770;1282;25389;-67
2023/03/08 05:33:14;;;;;;;23.90;17.20;;;;;;;2.14;100.00;98223.49;106943;1285;24979;-67
2023/03/08 05:35:43;;;;;;;23.40;16.80;;;;;;;2.18;100.00;98218.00;107042;1285;22549;-67
2023/03/08 05:38:15;;;;;;;25.80;17.20;;;;;;;2.15;100.00;98220.71;109755;1285;22400;-68
2023/03/08 05:40:45;;;;;;;25.20;17.70;;;;;;;2.12;100.00;98215.91;109570;1285;22335;-67
2023/03/08 05:43:14;;;;;;;26.30;18.20;;;;;;;2.10;100.00;98212.50;109607;1281;23071;-68
2023/03/08 05:45:43;;;;;;;24.90;16.70;;;;;;;2.16;100.00;98206.87;109588;1285;22249;-68
2023/03/08 05:48:11;;;;;;;27.00;17.60;;;;;;;2.22;100.00;98206.87;109933;1279;22205;-67
2023/03/08 05:50:41;;;;;;;25.10;17.90;;;;;;;2.25;100.00;98208.20;110058;1279;22263;-68
2023/03/08 05:53:09;;;;;;;26.80;18.20;;;;;;;2.23;100.00;98193.67;110094;1279;22672;-67
2023/03/08 05:55:38;;;;;;;25.40;17.70;;;;;;;2.22;100.00;98191.68;110009;1279;22232;-67
2023/03/08 05:58:06;;;;;;;26.10;17.30;;;;;;;2.28;100.00;98183.19;110027;1279;22464;-67
2023/03/08 06:00:36;;;;;;;28.10;18.00;;;;;;;2.34;100.00;98185.98;109179;1274;22632;-66
2023/03/08 06:03:04;;;;;;;27.70;18.60;;;;;;;2.33;100.00;98186.78;107371;1279;25343;-67
2023/03/08 06:05:35;;;;;;;27.80;18.60;;;;;;;2.30;100.00;98186.95;107319;1279;22657;-67
2023/03/08 06:08:14;;;;;;;26.80;18.80;;;;;;;2.29;100.00;98195.06;107113;1279;25359;-68
2023/03/08 06:10:44;;;;;;;25.80;17.70;;;;;;;2.35;100.00;98198.98;107347;1279;25328;-69
2023/03/08 06:13:12;;;;;;;26.00;18.00;;;;;;;2.44;100.00;98197.48;107332;1279;25486;-67
2023/03/08 06:15:41;;;;;;;25.40;17.70;;;;;;;2.48;100.00;98194.42;107274;1279;23625;-68
2023/03/08 06:18:11;;;;;;;28.80;19.40;;;;;;;2.53;100.00;98192.04;107331;1279;25372;-67
2023/03/08 06:20:41;;;;;;;26.90;18.40;;;;;;;2.59;100.00;98193.86;107350;1279;25441;-68
2023/03/08 06:23:10;;;;;;;25.30;17.50;;;;;;;2.71;100.00;98195.39;109958;1279;23212;-68
2023/03/08 06:25:42;;;;;;;24.40;17.70;;;;;;;2.88;100.00;98196.15;109989;1279;22449;-69
2023/03/08 06:28:11;;;;;;;27.30;19.00;;;;;;;3.04;100.00;98205.61;110009;1279;22392;-69
2023/03/08 06:30:41;;;;;;;24.50;18.70;;;;;;;3.19;100.00;98206.01;110117;1279;22413;-69
2023/03/08 06:33:10;;;;;;;30.00;18.40;;;;;;;3.32;100.00;98207.05;110123;1279;22861;-69
2023/03/08 06:35:38;;;;;;;26.00;17.60;;;;;;;3.46;100.00;98209.70;110012;1279;22429;-68
2023/03/08 06:38:07;;;;;;;24.60;17.00;;;;;;;3.67;100.00;98205.67;110450;1275;23088;-68
2023/03/08 06:40:36;;;;;;;25.50;17.60;;;;;;;3.83;100.00;98210.04;110472;1275;22411;-69
2023/03/08 06:43:04;;;;;;;26.20;17.90;;;;;;;3.90;100.00;98204.19;110464;1275;23093;-68
2023/03/08 06:45:37;;;;;;;24.70;17.50;;;;;;;4.00;100.00;98202.16;110448;1275;22925;-68
2023/03/08 06:48:12;;;;;;;27.80;17.60;;;;;;;4.12;100.00;98191.84;110447;1275;22238;-68
2023/03/08 06:50:40;;;;;;;22.00;15.70;;;;;;;4.23;100.00;98189.38;110433;1274;22371;-69
2023/03/08 06:53:09;;;;;;;21.70;15.90;;;;;;;4.38;100.00;98177.64;110446;1275;23068;-68
2023/03/08 06:55:53;;;;;;;23.80;17.40;;;;;;;4.46;100.00;98170.30;110451;1275;22884;-69
2023/03/08 06:58:21;;;;;;;22.20;16.30;;;;;;;4.47;100.00;98167.62;110429;1274;22224;-68
2023/03/08 07:00:49;;;;;;;24.20;16.10;;;;;;;4.49;100.00;98163.85;110441;1275;22882;-68
2023/03/08 07:03:18;;;;;;;22.70;16.60;;;;;;;4.47;100.00;98168.20;110489;1274;22920;-69
2023/03/08 07:05:46;;;;;;;27.50;17.50;;;;;;;4.47;100.00;98168.26;110426;1274;22344;-69
2023/03/08 07:08:16;;;;;;;22.30;15.60;;;;;;;4.50;100.00;98165.46;110462;1274;23020;-69
2023/03/08 07:10:44;;;;;;;22.20;15.90;;;;;;;4.55;100.00;98160.98;110420;1273;22230;-69
2023/03/08 07:13:14;;;;;;;20.50;15.50;;;;;;;4.60;100.00;98162.65;110440;1275;22177;-70
2023/03/08 07:15:42;;;;;;;21.80;15.90;;;;;;;4.63;100.00;98152.67;110434;1274;22227;-69
2023/03/08 07:18:12;;;;;;;21.30;15.60;;;;;;;4.64;100.00;98138.33;110449;1270;22855;-69
2023/03/08 07:20:42;;;;;;;22.20;16.90;;;;;;;4.66;100.00;98144.15;110470;1274;22569;-69
2023/03/08 07:23:11;;;;;;;22.30;16.60;;;;;;;4.69;100.00;98165.05;110438;1274;23109;-68
2023/03/08 07:25:39;;;;;;;22.80;15.40;;;;;;;4.73;100.00;98172.66;110364;1274;22364;-69
2023/03/08 07:28:08;;;;;;;22.50;15.00;;;;;;;4.81;100.00;98176.75;110462;1275;23116;-69
2023/03/08 07:30:37;;;;;;;19.10;14.00;;;;;;;4.90;100.00;98168.96;110449;1275;22205;-69
2023/03/08 07:33:10;;;;;;;20.90;15.00;;;;;;;4.93;100.00;98167.66;110431;1274;23029;-69
2023/03/08 07:35:39;;;;;;;22.10;14.10;;;;;;;4.96;100.00;98160.16;110269;1274;22261;-70
2023/03/08 07:38:10;;;;;;;21.10;14.50;;;;;;;4.98;100.00;98155.19;107642;1274;26183;-69
2023/03/08 07:40:40;;;;;;;23.20;15.70;;;;;;;5.02;100.00;98154.80;107646;1274;23345;-69
2023/03/08 07:43:08;;;;;;;22.70;14.80;;;;;;;5.01;100.00;98149.85;107581;1274;23190;-67
2023/03/08 07:45:51;;;;;;;22.40;15.40;;;;;;;5.00;100.00;98154.86;107817;1274;24377;-67
2023/03/08 07:48:20;;;;;;;18.50;13.70;;;;;;;5.04;100.00;98148.70;107619;1274;22835;-69
2023/03/08 07:50:49;;;;;;;22.30;15.00;;;;;;;5.09;100.00;98145.28;107611;1274;27173;-69
2023/03/08 07:53:18;;;;;;;19.50;14.40;;;;;;;5.12;100.00;98133.20;107491;1274;25512;-68
2023/03/08 07:55:46;;;;;;;21.70;14.60;;;;;;;5.18;100.00;98131.17;107634;1274;25496;-68
2023/03/08 07:58:15;;;;;;;20.30;14.80;;;;;;;5.27;100.00;98128.02;107910;1274;23210;-69
2023/03/08 08:00:43;;;;;;;22.30;15.20;;;;;;;5.41;100.00;98133.20;107695;1273;25481;-69
2023/03/08 08:03:12;;;;;;;20.80;15.10;;;;;;;5.55;100.00;98138.73;107493;1270;26072;-69
2023/03/08 08:05:40;;;;;;;21.20;13.50;;;;;;;5.73;100.00;98136.48;107309;1274;23843;-69
2023/03/08 08:08:12;;;;;;;19.70;14.10;;;;;;;6.01;100.00;98138.44;107598;1274;24240;-69
2023/03/08 08:10:44;;;;;;;19.00;13.40;;;;;;;6.11;100.00;98135.95;107559;1274;23617;-69
2023/03/08 08:13:15;;;;;;;20.90;14.10;;;;;;;6.14;100.00;98134.77;107801;1274;22544;-68
2023/03/08 08:15:45;;;;;;;20.40;13.60;;;;;;;6.14;100.00;98138.46;110455;1274;22730;-69
2023/03/08 08:18:14;;;;;;;18.50;13.10;;;;;;;6.14;100.00;98134.45;110468;1275;22463;-68
2023/03/08 08:20:43;;;;;;;18.10;13.80;;;;;;;6.16;100.00;98127.20;110438;1274;23352;-69
2023/03/08 08:23:11;;;;;;;19.20;13.80;;;;;;;6.15;100.00;98130.77;110480;1274;22419;-69
2023/03/08 08:25:45;;;;;;;19.00;13.50;;;;;;;6.16;100.00;98127.09;110497;1274;23165;-69
2023/03/08 08:28:14;;;;;;;18.80;13.20;;;;;;;6.19;100.00;98126.48;110484;1275;22481;-69
2023/03/08 08:30:43;;;;;;;18.30;12.70;;;;;;;6.25;100.00;98124.97;110489;1274;22288;-69
2023/03/08 08:33:12;;;;;;;17.70;13.00;;;;;;;6.28;100.00;98124.98;110465;1274;22784;-68
2023/03/08 08:35:40;;;;;;;19.20;13.00;;;;;;;6.30;100.00;98121.58;110435;1275;22292;-68
2023/03/08 08:38:11;;;;;;;18.00;13.30;;;;;;;6.35;100.00;98116.51;110339;1276;22205;-68
2023/03/08 08:40:40;;;;;;;18.20;13.10;;;;;;;6.39;100.00;98119.08;109381;1274;22570;-68
2023/03/08 08:43:11;;;;;;;17.50;13.20;;;;;;;6.43;100.00;98116.43;107693;1275;25474;-68
2023/03/08 08:45:44;;;;;;;18.30;13.30;;;;;;;6.50;100.00;98119.66;107546;1275;23071;-68
2023/03/08 08:48:12;;;;;;;19.90;14.70;;;;;;;6.62;100.00;98119.98;107767;1268;22659;-67
2023/03/08 08:50:42;;;;;;;16.10;12.40;;;;;;;6.77;100.00;98122.00;107596;1274;23634;-68
2023/03/08 08:53:11;;;;;;;17.50;12.90;;;;;;;6.88;100.00;98121.78;107620;1269;22662;-68
2023/03/08 08:55:41;;;;;;;18.20;13.10;;;;;;;6.96;100.00;98123.48;107482;1275;22551;-68
2023/03/08 08:58:13;;;;;;;21.80;15.80;;;;;;;7.03;100.00;98120.86;107625;1274;26503;-68
2023/03/08 09:00:41;;;;;;;16.70;12.70;;;;;;;7.10;100.00;98123.23;107537;1275;24294;-69
2023/03/08 09:03:10;;;;;;;22.40;18.30;;;;;;;7.13;100.00;98120.26;107655;1274;25923;-68
2023/03/08 09:05:40;;;;;;;19.60;15.80;;;;;;;7.13;100.00;98126.10;107602;1274;22544;-69
2023/03/08 09:08:10;;;;;;;21.90;14.30;;;;;;;7.12;100.00;98126.23;107569;1275;25504;-68
2023/03/08 09:10:39;;;;;;;19.00;13.80;;;;;;;7.10;100.00;98121.06;107564;1274;22620;-68
2023/03/08 09:13:10;;;;;;;19.10;12.60;;;;;;;7.05;100.00;98122.46;107518;1274;23225;-68
2023/03/08 09:15:39;;;;;;;18.40;13.60;;;;;;;6.98;100.00;98122.42;110385;1274;22966;-69
2023/03/08 09:18:09;;;;;;;16.90;12.10;;;;;;;6.96;100.00;98122.45;110441;1274;22939;-69
2023/03/08 09:20:43;;;;;;;19.00;12.50;;;;;;;7.01;100.00;98134.46;110498;1274;22220;-69
2023/03/08 09:23:12;;;;;;;17.10;12.60;;;;;;;7.06;100.00;98126.20;110486;1274;22191;-70
2023/03/08 09:25:40;;;;;;;18.20;13.40;;;;;;;7.12;100.00;98131.48;110468;1274;22248;-69
2023/03/08 09:28:11;;;;;;;15.80;11.30;;;;;;;7.17;100.00;98125.90;110437;1274;22494;-69
2023/03/08 09:30:39;;;;;;;15.30;11.20;;;;;;;7.17;100.00;98126.70;110404;1274;23018;-69
2023/03/08 09:33:09;;;;;;;17.50;12.40;;;;;;;7.18;100.00;98131.04;110483;1274;22202;-69
2023/03/08 09:35:37;;;;;;;21.10;13.30;;;;;;;7.20;100.00;98136.36;110498;1274;22231;-69
2023/03/08 09:38:05;;;;;;;20.60;12.00;;;;;;;7.21;100.00;98137.98;110495;1274;23190;-68
2023/03/08 09:40:41;;;;;;;17.00;11.70;;;;;;;7.31;100.00;98138.38;110494;1274;22184;-68
2023/03/08 09:43:12;;;;;;;16.70;11.70;;;;;;;7.40;100.00;98138.61;110431;1274;22391;-70
2023/03/08 09:45:42;;;;;;;15.30;11.60;;;;;;;7.42;100.00;98140.00;110376;1274;22414;-69
2023/03/08 09:48:14;;;;;;;16.10;12.00;;;;;;;7.42;100.00;98135.83;110460;1274;22306;-68
2023/03/08 09:50:49;;;;;;;15.70;11.70;;;;;;;7.44;100.00;98144.90;110413;1274;22225;-69
2023/03/08 09:53:37;;;;;;;17.20;12.00;;;;;;;7.41;100.00;98150.17;110490;1274;22461;-69
2023/03/08 09:56:11;;;;;;;;;;;;;;;7.36;100.00;98155.52;110422;1274;22460;-68
2023/03/08 09:59:02;;;;;;;15.60;10.60;;;;;;;7.29;100.00;98149.62;110462;1275;22263;-68
2023/03/08 10:01:55;;;;;;;15.50;10.80;;;;;;;7.19;100.00;98139.14;110191;1274;22242;-68
2023/03/08 10:04:43;;;;;;;14.70;11.50;;;;;;;7.09;100.00;98134.00;110410;1274;22276;-67
2023/03/08 10:07:29;;;;;;;14.10;10.20;;;;;;;7.12;100.00;98123.41;110369;1274;22357;-68
2023/03/08 10:10:12;;;;;;;15.80;12.10;;;;;;;7.26;100.00;98127.80;110434;1275;22344;-68
2023/03/08 10:13:11;;;;;;;15.80;10.90;;;;;;;7.29;100.00;98141.02;107453;1275;24313;-68
2023/03/08 10:15:43;;;;;;;14.30;10.50;;;;;;;7.30;100.00;98143.65;107925;1274;22704;-68
2023/03/08 10:18:35;;;;;;;14.90;10.70;;;;;;;7.30;100.00;98147.35;107718;1273;22555;-67
2023/03/08 10:21:10;;;;;;;14.10;9.90;;;;;;;7.39;100.00;98149.08;107282;1274;26538;-67
2023/03/08 10:23:40;;;;;;;14.40;10.50;;;;;;;7.35;100.00;98143.71;107642;1274;22527;-67
2023/03/08 10:26:11;;;;;;;12.90;10.40;;;;;;;7.27;100.00;98136.23;107625;1270;25284;-67
2023/03/08 10:28:39;;;;;;;17.10;11.50;;;;;;;7.16;100.00;98124.94;107666;1274;22532;-67
2023/03/08 10:31:20;;;;;;;15.10;10.10;;;;;;;7.08;100.00;98123.41;107598;1274;22521;-67
2023/03/08 10:33:51;;;;;;;14.50;10.50;;;;;;;7.04;100.00;98126.48;107649;1274;22653;-67
2023/03/08 10:36:22;;;;;;;14.80;10.80;;;;;;;6.93;100.00;98125.23;108386;1272;23144;-67
2023/03/08 10:39:05;;;;;;;14.20;10.40;;;;;;;6.86;100.00;98130.23;107538;1274;22559;-67
2023/03/08 10:41:42;;;;;;;13.10;9.90;;;;;;;6.80;100.00;98134.95;107502;1274;23405;-67
2023/03/08 10:44:28;;;;;;;15.60;10.30;;;;;;;6.83;100.00;98140.17;107600;1274;25519;-67
2023/03/08 10:46:57;;;;;;;16.50;10.80;;;;;;;6.82;100.00;98144.20;107581;1274;25369;-68
2023/03/08 10:49:25;;;;;;;16.50;10.90;;;;;;;6.78;100.00;98142.17;107850;1274;25484;-67
2023/03/08 10:51:57;;;;;;;13.20;10.10;;;;;;;6.76;100.00;98135.48;107714;1274;25407;-67
2023/03/08 10:54:36;;;;;;;14.20;10.30;;;;;;;6.82;100.00;98139.81;110458;1273;23281;-68
2023/03/08 10:57:10;;;;;;;14.50;10.20;;;;;;;6.79;100.00;98135.13;110486;1274;22997;-68
2023/03/08 10:59:39;;;;;;;15.10;10.90;;;;;;;6.74;100.00;98131.02;110296;1274;23669;-68
2023/03/08 11:02:12;;;;;;;13.00;9.80;;;;;;;6.69;100.00;98123.33;110460;1274;23154;-68
2023/03/08 11:04:55;;;;;;;14.00;9.60;;;;;;;6.70;100.00;98113.42;110526;1274;22926;-68
2023/03/08 11:07:29;;;;;;;15.30;10.70;;;;;;;6.69;100.00;98106.35;110470;1275;22538;-68
2023/03/08 11:10:25;;;;;;;14.40;11.10;;;;;;;6.64;100.00;98103.10;110489;1274;22956;-68
2023/03/08 11:13:24;;;;;;;14.80;11.70;;;;;;;6.62;100.00;98109.66;110437;1275;23126;-67
2023/03/08 11:16:20;;;;;;;14.90;10.90;;;;;;;6.74;100.00;98106.83;108911;1273;23101;-67
2023/03/08 11:19:11;;;;;;;15.60;11.20;;;;;;;6.76;100.00;98101.77;107418;1275;26547;-67
2023/03/08 11:21:42;;;;;;;16.50;11.20;;;;;;;6.71;100.00;98101.41;107563;1269;24375;-67
2023/03/08 11:24:33;;;;;;;16.70;11.30;;;;;;;6.67;100.00;98095.43;107492;1274;22613;-67
2023/03/08 11:27:29;;;;;;;15.70;11.50;;;;;;;6.70;100.00;98100.05;107358;1274;25366;-67
2023/03/08 11:30:23;;;;;;;16.90;12.20;;;;;;;6.70;100.00;98099.90;107382;1276;25373;-67
2023/03/08 11:33:15;;;;;;;17.20;12.50;;;;;;;6.74;100.00;98094.19;107456;1273;26270;-67